Time;durP1;ratioP1;P1;durP2;ratioP2;P2;SDS_P1;SDS_P2;PMS_P1;PMS_P2;Temp;Humidity;BMP_temperature;BMP_pressure;BME280_temperature;BME280_humidity;BME280_pressure;Samples;Min_cycle;Max_cycle;Signal;HPM_P1;HPM_P2
2023/05/17 02:05:16;;;;;;;29.80;26.60;;;13.20;99.90;;;;;;4645539;29;20486;-87
2023/05/17 02:31:08;;;;;;;28.97;24.57;;;13.00;99.90;;;;;;4512922;30;20227;-84
2023/05/17 03:01:33;;;;;;;24.93;21.60;;;12.90;99.90;;;;;;4512221;30;20275;-86
2023/05/17 03:26:50;;;;;;;24.83;21.97;;;12.60;99.90;;;;;;4580766;30;20508;-85
2023/05/17 03:47:17;;;;;;;23.40;20.63;;;12.60;99.90;;;;;;4468349;31;20299;-86
2023/05/17 04:12:13;;;;;;;24.20;20.73;;;12.60;99.90;;;;;;4500521;30;20343;-86
2023/05/17 04:32:27;;;;;;;21.93;19.57;;;12.70;99.90;;;;;;4472935;31;20744;-88
2023/05/17 05:08:23;;;;;;;19.73;17.27;;;12.80;99.90;;;;;;4474632;30;20311;-87
2023/05/17 05:28:43;;;;;;;16.67;14.90;;;12.90;99.90;;;;;;4551434;30;20243;-86
2023/05/17 06:18:55;;;;;;;10.50;9.47;;;12.90;99.90;;;;;;4480385;31;21051;-85
2023/05/17 06:39:03;;;;;;;11.10;10.10;;;12.90;99.90;;;;;;4514433;31;20226;-85
2023/05/17 07:04:30;;;;;;;11.13;10.03;;;12.90;99.90;;;;;;4508093;30;20555;-84
2023/05/17 07:30:22;;;;;;;9.60;8.77;;;13.00;99.90;;;;;;4653429;30;20219;-86
2023/05/17 08:00:19;;;;;;;10.07;9.17;;;13.00;99.90;;;;;;4501374;30;20672;-85
2023/05/17 08:26:05;;;;;;;10.30;9.30;;;13.10;99.90;;;;;;4546277;30;20218;-86
2023/05/17 08:46:20;;;;;;;9.87;8.37;;;13.10;99.90;;;;;;4562552;30;21749;-83
2023/05/17 09:37:16;;;;;;;8.87;7.97;;;13.00;99.90;;;;;;4564483;30;20385;-86
2023/05/17 10:02:18;;;;;;;8.83;8.03;;;12.90;99.90;;;;;;4524930;30;20269;-82
2023/05/17 10:32:25;;;;;;;15.27;12.83;;;12.30;99.90;;;;;;4608523;29;20630;-84
2023/05/17 10:53:13;;;;;;;13.63;11.47;;;12.30;99.90;;;;;;4513367;30;20255;-86
2023/05/17 11:13:33;;;;;;;16.53;10.23;;;12.30;99.90;;;;;;4504363;30;20323;-85
2023/05/17 11:33:57;;;;;;;14.40;10.30;;;12.10;99.90;;;;;;4529877;30;20248;-85
2023/05/17 12:04:26;;;;;;;13.43;9.80;;;12.30;99.90;;;;;;4570442;30;20275;-81
2023/05/17 12:24:22;;;;;;;11.70;8.47;;;12.60;99.90;;;;;;4576253;30;21686;-85
2023/05/17 13:20:24;;;;;;;12.40;9.33;;;12.70;99.90;;;;;;4769275;29;20321;-83
2023/05/17 13:50:51;;;;;;;12.13;9.47;;;13.20;99.90;;;;;;4745247;29;20337;-86
2023/05/17 14:31:31;;;;;;;13.57;11.37;;;13.10;99.90;;;;;;4685970;30;20210;-86
2023/05/17 14:56:33;;;;;;;15.23;11.20;;;12.90;99.90;;;;;;4684968;29;20273;-86
2023/05/17 15:17:03;;;;;;;20.30;12.97;;;12.90;99.90;;;;;;4598476;30;20223;-87
2023/05/17 16:57:51;;;;;;;12.47;8.87;;;12.30;99.90;;;;;;4669455;30;20614;-85
2023/05/17 17:18:45;;;;;;;11.87;9.27;;;12.30;99.90;;;;;;4640912;30;20846;-86
2023/05/17 17:39:06;;;;;;;11.27;8.77;;;12.20;99.90;;;;;;4588615;30;20228;-88
2023/05/17 18:04:03;;;;;;;12.53;8.77;;;12.20;99.90;;;;;;4699807;30;20362;-89
2023/05/17 18:19:45;;;;;;;11.13;7.57;;;12.20;99.90;;;;;;4601640;30;20227;-85
2023/05/17 18:24:03;;;;;;;11.10;8.97;;;12.20;99.90;;;;;;4587376;30;20234;-87
2023/05/17 18:45:01;;;;;;;9.97;8.10;;;12.10;99.90;;;;;;4599483;30;20278;-85
2023/05/17 20:11:13;;;;;;;13.57;7.10;;;11.90;99.90;;;;;;4737672;29;20192;-84
2023/05/17 20:36:10;;;;;;;15.00;7.70;;;11.70;99.90;;;;;;4616011;30;20573;-86
2023/05/17 20:56:38;;;;;;;11.80;8.33;;;11.50;99.90;;;;;;4590025;30;20318;-87
2023/05/17 21:37:31;;;;;;;13.37;7.20;;;11.20;99.90;;;;;;4749662;29;20358;-86
2023/05/17 21:41:50;;;;;;;14.60;6.50;;;11.20;99.90;;;;;;4737379;29;20475;-82
2023/05/17 22:07:37;;;;;;;11.93;5.53;;;10.60;99.90;;;;;;4603759;30;20222;-85
2023/05/17 22:43:02;;;;;;;15.53;4.60;;;9.70;99.90;;;;;;4650909;29;20709;-84
2023/05/17 23:23:54;;;;;;;7.67;3.10;;;9.30;98.60;;;;;;4791707;29;20208;-87
2023/05/17 23:53:40;;;;;;;12.27;3.23;;;9.00;97.80;;;;;;4628297;30;20570;-86
